Time;durP1;ratioP1;P1;durP2;ratioP2;P2;SDS_P1;SDS_P2;PMS_P1;PMS_P2;Temp;Humidity;BMP_temperature;BMP_pressure;BME280_temperature;BME280_humidity;BME280_pressure;Samples;Min_cycle;Max_cycle;Signal;HPM_P1;HPM_P2
2023/08/01 00:00:16;;;;;;;0.30;0.30;;;16.50;99.90;;;;;;5093495;28;20469;-73
2023/08/01 00:02:42;;;;;;;0.40;0.40;;;16.40;99.90;;;;;;5093433;28;20123;-73
2023/08/01 00:05:08;;;;;;;0.40;0.40;;;16.50;99.90;;;;;;5093688;28;20040;-74
2023/08/01 00:07:33;;;;;;;0.50;0.50;;;16.50;99.90;;;;;;5093389;28;20071;-73
2023/08/01 00:09:59;;;;;;;0.80;0.80;;;16.50;99.90;;;;;;5093385;28;20089;-73
2023/08/01 00:12:25;;;;;;;0.57;0.57;;;16.50;99.90;;;;;;5092074;28;20479;-73
2023/08/01 00:14:51;;;;;;;0.30;0.30;;;16.50;99.90;;;;;;5093308;28;20072;-73
2023/08/01 00:17:17;;;;;;;0.50;0.50;;;16.50;99.90;;;;;;5093372;28;20124;-74
2023/08/01 00:19:42;;;;;;;0.30;0.30;;;16.50;99.90;;;;;;5093649;28;20055;-73
2023/08/01 00:22:08;;;;;;;0.47;0.47;;;16.50;99.90;;;;;;5093271;28;20039;-73
2023/08/01 00:24:35;;;;;;;0.40;0.40;;;16.50;99.90;;;;;;5093646;28;20465;-73
2023/08/01 00:27:00;;;;;;;0.60;0.60;;;16.50;99.90;;;;;;5093187;28;20040;-73
2023/08/01 00:29:26;;;;;;;1.40;0.70;;;16.50;99.90;;;;;;5093696;28;20036;-73
2023/08/01 00:31:51;;;;;;;0.63;0.63;;;16.50;99.90;;;;;;5096855;28;20112;-73
2023/08/01 00:34:17;;;;;;;0.40;0.40;;;16.40;99.90;;;;;;5097178;28;20079;-73
2023/08/01 00:36:43;;;;;;;0.50;0.50;;;16.40;99.90;;;;;;5096975;28;20054;-74
2023/08/01 00:39:09;;;;;;;0.50;0.50;;;16.40;99.90;;;;;;5096660;28;20143;-73
2023/08/01 00:41:35;;;;;;;0.35;0.35;;;16.40;99.90;;;;;;5096591;28;20097;-73
2023/08/01 00:44:00;;;;;;;0.43;0.43;;;16.30;99.90;;;;;;5097131;28;20425;-73
2023/08/01 00:46:26;;;;;;;0.30;0.30;;;16.40;99.90;;;;;;5096369;28;20044;-73
2023/08/01 00:48:53;;;;;;;0.37;0.37;;;16.40;99.90;;;;;;5096789;28;20442;-74
2023/08/01 00:51:19;;;;;;;0.50;0.50;;;16.40;99.90;;;;;;5096569;28;20047;-72
2023/08/01 00:53:46;;;;;;;0.40;0.40;;;16.40;99.90;;;;;;5096434;28;20464;-72
2023/08/01 00:56:12;;;;;;;0.65;0.30;;;16.40;99.90;;;;;;5096370;28;20101;-72
2023/08/01 00:58:37;;;;;;;0.50;0.50;;;16.40;99.90;;;;;;5096328;28;20075;-72
2023/08/01 01:01:03;;;;;;;0.83;0.83;;;16.40;99.90;;;;;;5095134;28;20039;-72
2023/08/01 01:03:30;;;;;;;0.40;0.40;;;16.40;99.90;;;;;;5096305;28;20044;-73
2023/08/01 01:06:16;;;;;;;0.50;0.50;;;16.40;99.90;;;;;;5096202;28;20071;-72
2023/08/01 01:08:42;;;;;;;0.40;0.40;;;16.40;99.90;;;;;;5096186;28;20093;-72
2023/08/01 01:11:08;;;;;;;0.40;0.30;;;16.40;99.90;;;;;;5096116;28;20036;-73
2023/08/01 01:13:33;;;;;;;0.40;0.40;;;16.40;99.90;;;;;;5095801;28;20040;-73
2023/08/01 01:15:59;;;;;;;0.40;0.40;;;16.40;99.90;;;;;;5096304;28;20071;-72
2023/08/01 01:18:25;;;;;;;0.60;0.50;;;16.40;99.90;;;;;;5096129;28;20487;-73
2023/08/01 01:20:51;;;;;;;0.30;0.30;;;16.40;99.90;;;;;;5096119;28;20107;-73
2023/08/01 01:23:18;;;;;;;0.40;0.40;;;16.50;99.90;;;;;;5095862;28;20044;-72
2023/08/01 01:25:46;;;;;;;0.52;0.50;;;16.40;99.90;;;;;;5095757;28;20040;-72
2023/08/01 01:28:13;;;;;;;0.30;0.30;;;16.30;99.90;;;;;;5095717;28;20036;-72
2023/08/01 01:30:39;;;;;;;0.30;0.30;;;16.30;99.90;;;;;;5095677;28;20071;-72
2023/08/01 01:33:05;;;;;;;0.50;0.50;;;16.30;99.90;;;;;;5095658;28;20048;-72
2023/08/01 01:35:34;;;;;;;0.40;0.40;;;16.30;99.90;;;;;;5095885;28;20403;-73
2023/08/01 01:38:03;;;;;;;0.40;0.40;;;16.40;99.90;;;;;;5095416;28;20043;-73
2023/08/01 01:40:32;;;;;;;0.30;0.30;;;16.30;99.90;;;;;;5095864;28;20051;-72
2023/08/01 01:42:59;;;;;;;0.40;0.30;;;16.30;99.90;;;;;;5095439;28;20118;-72
2023/08/01 01:45:24;;;;;;;0.30;0.30;;;16.30;99.90;;;;;;5095539;28;20040;-72
2023/08/01 01:47:50;;;;;;;0.87;0.50;;;16.30;99.90;;;;;;5095666;28;20036;-72
2023/08/01 01:50:15;;;;;;;0.53;0.50;;;16.30;99.90;;;;;;5095289;28;20491;-73
2023/08/01 01:52:41;;;;;;;0.30;0.30;;;16.30;99.90;;;;;;5095256;28;20043;-72
2023/08/01 01:55:07;;;;;;;0.50;0.43;;;16.30;99.90;;;;;;5095224;28;20040;-73
2023/08/01 01:57:33;;;;;;;0.33;0.33;;;16.30;99.90;;;;;;5095095;28;20467;-72
2023/08/01 01:59:58;;;;;;;0.30;0.30;;;16.40;99.90;;;;;;5095467;28;20123;-72
2023/08/01 02:02:24;;;;;;;0.50;0.50;;;16.30;99.90;;;;;;5095083;28;20051;-73
2023/08/01 02:04:50;;;;;;;0.87;0.57;;;16.30;99.90;;;;;;5095304;28;20036;-73
2023/08/01 02:07:16;;;;;;;0.40;0.40;;;16.30;99.90;;;;;;5094667;28;20508;-72
2023/08/01 02:09:41;;;;;;;0.53;0.47;;;16.20;99.90;;;;;;5094997;28;20078;-73
2023/08/01 02:12:09;;;;;;;0.50;0.50;;;16.20;99.90;;;;;;5094945;28;20456;-73
2023/08/01 02:14:35;;;;;;;0.40;0.40;;;16.30;99.90;;;;;;5094826;28;20040;-73
2023/08/01 02:17:01;;;;;;;0.37;0.30;;;16.20;99.90;;;;;;5094729;28;20047;-73
2023/08/01 02:19:27;;;;;;;0.53;0.53;;;16.30;99.90;;;;;;5094936;28;20142;-72
2023/08/01 02:21:53;;;;;;;0.33;0.33;;;16.20;99.90;;;;;;5094745;28;20044;-73
2023/08/01 02:24:19;;;;;;;0.40;0.40;;;16.20;99.90;;;;;;5094433;28;20046;-73
2023/08/01 02:26:44;;;;;;;0.40;0.40;;;16.30;99.90;;;;;;5094699;28;20410;-73
2023/08/01 02:29:10;;;;;;;0.40;0.40;;;16.30;99.90;;;;;;5094680;28;20073;-73
2023/08/01 02:31:36;;;;;;;0.27;0.27;;;16.20;99.90;;;;;;5094612;28;20530;-72
2023/08/01 02:34:01;;;;;;;0.30;0.30;;;16.30;99.90;;;;;;5094511;28;20127;-73
2023/08/01 02:36:27;;;;;;;0.30;0.30;;;16.30;99.90;;;;;;5094461;28;20079;-72
2023/08/01 02:38:53;;;;;;;0.40;0.40;;;16.20;99.90;;;;;;5095109;28;20044;-73
2023/08/01 02:41:18;;;;;;;0.67;0.67;;;16.20;99.90;;;;;;5094562;28;20096;-74
2023/08/01 02:43:44;;;;;;;0.30;0.30;;;16.20;99.90;;;;;;5094405;28;20032;-73
2023/08/01 02:46:10;;;;;;;0.40;0.40;;;16.20;99.90;;;;;;5094296;28;20119;-73
2023/08/01 02:48:35;;;;;;;0.50;0.50;;;16.20;99.90;;;;;;5094298;28;20079;-73
2023/08/01 02:51:01;;;;;;;0.60;0.40;;;16.20;99.90;;;;;;5094262;28;20357;-73
2023/08/01 02:53:27;;;;;;;1.00;0.50;;;16.20;99.90;;;;;;5093641;28;20040;-73
2023/08/01 02:55:53;;;;;;;0.70;0.50;;;16.20;99.90;;;;;;5094182;28;20369;-73
2023/08/01 02:58:18;;;;;;;0.40;0.37;;;16.20;99.90;;;;;;5094093;28;20039;-73
2023/08/01 03:00:44;;;;;;;0.40;0.40;;;16.20;99.90;;;;;;5093970;28;20464;-73
2023/08/01 03:03:10;;;;;;;0.30;0.30;;;16.20;99.90;;;;;;5094091;28;20047;-73
2023/08/01 03:05:37;;;;;;;0.50;0.50;;;16.20;99.90;;;;;;5094154;28;20075;-73
2023/08/01 03:08:03;;;;;;;;;;;16.10;99.90;;;;;;5094370;28;20375;-73
2023/08/01 03:10:29;;;;;;;1.05;0.70;;;16.10;99.90;;;;;;5093989;28;19967;-73
2023/08/01 03:12:55;;;;;;;0.60;0.60;;;16.10;99.90;;;;;;5093936;28;20460;-73
2023/08/01 03:15:20;;;;;;;0.47;0.47;;;16.10;99.90;;;;;;5093043;28;20067;-73
2023/08/01 03:17:46;;;;;;;0.40;0.40;;;16.00;99.90;;;;;;5093855;28;20028;-72
2023/08/01 03:20:12;;;;;;;0.40;0.33;;;16.10;99.90;;;;;;5093705;28;20077;-72
2023/08/01 03:22:41;;;;;;;0.30;0.30;;;16.00;99.90;;;;;;5093815;28;20066;-73
2023/08/01 03:25:08;;;;;;;0.70;0.70;;;15.90;99.90;;;;;;5093834;28;20349;-73
2023/08/01 03:27:34;;;;;;;0.40;0.40;;;16.00;99.90;;;;;;5093819;28;20043;-73
2023/08/01 03:30:01;;;;;;;0.30;0.30;;;15.90;99.90;;;;;;5093781;28;20182;-73
2023/08/01 03:32:26;;;;;;;0.40;0.40;;;15.90;99.90;;;;;;5093736;28;20051;-73
2023/08/01 03:34:52;;;;;;;0.33;0.33;;;15.90;99.90;;;;;;5093805;28;20032;-73
2023/08/01 03:37:18;;;;;;;0.40;0.40;;;15.90;99.90;;;;;;5093262;28;20102;-72
2023/08/01 03:39:44;;;;;;;0.30;0.30;;;15.80;99.90;;;;;;5094154;28;20040;-73
2023/08/01 03:42:09;;;;;;;0.50;0.50;;;15.80;99.90;;;;;;5093717;28;20036;-73
2023/08/01 03:44:35;;;;;;;0.47;0.47;;;15.80;99.90;;;;;;5093649;28;20039;-73
2023/08/01 03:47:01;;;;;;;0.40;0.40;;;15.70;99.90;;;;;;5094062;28;20349;-73
2023/08/01 03:49:26;;;;;;;0.57;0.57;;;15.70;99.90;;;;;;5092573;28;20468;-73
2023/08/01 03:51:52;;;;;;;0.60;0.60;;;15.70;99.90;;;;;;5093529;28;20040;-73
2023/08/01 03:54:18;;;;;;;0.63;0.63;;;15.60;99.90;;;;;;5093606;28;20032;-73
2023/08/01 03:56:44;;;;;;;0.30;0.30;;;15.60;99.90;;;;;;5093196;28;20040;-73
2023/08/01 03:59:14;;;;;;;0.50;0.50;;;15.60;99.90;;;;;;5093523;28;20042;-73
2023/08/01 04:01:40;;;;;;;1.38;1.20;;;15.50;99.90;;;;;;5093449;28;20036;-73
2023/08/01 04:04:06;;;;;;;0.83;0.83;;;15.50;99.90;;;;;;5093447;28;20036;-73
2023/08/01 04:06:32;;;;;;;0.50;0.50;;;15.50;99.90;;;;;;5097339;28;20048;-73
2023/08/01 04:08:59;;;;;;;0.77;0.77;;;15.50;99.90;;;;;;5097684;28;20047;-73
2023/08/01 04:11:25;;;;;;;0.38;0.38;;;15.50;99.90;;;;;;5097271;28;20040;-73
2023/08/01 04:13:51;;;;;;;0.60;0.60;;;15.50;99.90;;;;;;5097272;28;20036;-72
2023/08/01 04:16:17;;;;;;;0.43;0.43;;;15.50;99.90;;;;;;5097141;28;20376;-73
2023/08/01 04:18:42;;;;;;;0.53;0.53;;;15.50;99.90;;;;;;5097133;28;20084;-73
2023/08/01 04:21:08;;;;;;;0.40;0.40;;;15.50;99.90;;;;;;5097045;28;20044;-72
2023/08/01 04:23:34;;;;;;;0.53;0.47;;;15.40;99.90;;;;;;5097117;28;20043;-72
2023/08/01 04:25:59;;;;;;;0.30;0.30;;;15.40;99.90;;;;;;5097062;28;20135;-72
2023/08/01 04:28:25;;;;;;;0.40;0.40;;;15.30;99.90;;;;;;5096952;28;20036;-73
2023/08/01 04:30:52;;;;;;;0.38;0.38;;;15.30;99.90;;;;;;5096901;28;20054;-73
2023/08/01 04:33:18;;;;;;;0.30;0.30;;;15.30;99.90;;;;;;5095977;28;20032;-73
2023/08/01 04:35:43;;;;;;;0.40;0.40;;;15.30;99.90;;;;;;5096771;28;20035;-73
2023/08/01 04:38:10;;;;;;;0.50;0.50;;;15.20;99.90;;;;;;5096715;28;20044;-73
2023/08/01 04:40:36;;;;;;;0.50;0.50;;;15.20;99.90;;;;;;5097099;28;20047;-72
2023/08/01 04:43:02;;;;;;;0.30;0.30;;;15.20;99.90;;;;;;5095511;28;20380;-72
2023/08/01 04:45:28;;;;;;;1.08;0.38;;;15.20;99.90;;;;;;5096721;28;20040;-73
2023/08/01 04:47:53;;;;;;;0.40;0.30;;;15.20;99.90;;;;;;5096558;28;20047;-73
2023/08/01 04:50:19;;;;;;;0.40;0.40;;;15.20;99.90;;;;;;5096585;28;20047;-73
2023/08/01 04:52:45;;;;;;;1.03;0.50;;;15.30;99.90;;;;;;5096497;28;20044;-72
2023/08/01 04:55:11;;;;;;;0.30;0.30;;;15.30;99.90;;;;;;5096478;28;20044;-73
2023/08/01 04:57:36;;;;;;;0.40;0.40;;;15.30;99.90;;;;;;5096615;28;20042;-73
2023/08/01 05:00:03;;;;;;;1.30;0.43;;;15.30;99.90;;;;;;5095481;28;20124;-73
2023/08/01 05:02:29;;;;;;;;;;;15.30;99.90;;;;;;5096743;28;20039;-73
2023/08/01 05:04:55;;;;;;;0.30;0.30;;;15.30;99.90;;;;;;5095946;28;19920;-73
2023/08/01 05:07:21;;;;;;;0.23;0.23;;;15.30;99.90;;;;;;5096436;28;20047;-73
2023/08/01 05:09:46;;;;;;;0.40;0.40;;;15.40;99.90;;;;;;5096213;28;20043;-73
2023/08/01 05:12:12;;;;;;;0.30;0.30;;;15.40;99.90;;;;;;5096118;28;20044;-73
2023/08/01 05:14:38;;;;;;;0.40;0.40;;;15.40;99.90;;;;;;5096150;28;20040;-73
2023/08/01 05:17:04;;;;;;;0.30;0.30;;;15.40;99.90;;;;;;5095613;28;20048;-73
2023/08/01 05:19:29;;;;;;;0.30;0.30;;;15.40;99.90;;;;;;5095926;28;20126;-72
2023/08/01 05:21:55;;;;;;;0.40;0.40;;;15.50;99.90;;;;;;5096039;28;20051;-74
2023/08/01 05:24:21;;;;;;;0.30;0.30;;;15.40;99.90;;;;;;5095956;28;20036;-73
2023/08/01 05:26:47;;;;;;;0.30;0.30;;;15.60;99.90;;;;;;5095852;28;20044;-74
2023/08/01 05:29:13;;;;;;;0.30;0.30;;;15.60;99.90;;;;;;5095875;28;20035;-73
2023/08/01 05:31:38;;;;;;;0.43;0.43;;;15.60;99.90;;;;;;5095521;28;20593;-73
2023/08/01 05:34:04;;;;;;;0.30;0.30;;;15.60;99.90;;;;;;5095752;28;20169;-74
2023/08/01 05:36:29;;;;;;;0.20;0.20;;;15.80;99.90;;;;;;5095386;28;20135;-76
2023/08/01 05:38:56;;;;;;;0.40;0.40;;;15.70;99.90;;;;;;5095943;28;20432;-76
2023/08/01 05:41:21;;;;;;;0.30;0.30;;;15.70;99.90;;;;;;5095566;28;20044;-71
2023/08/01 05:43:48;;;;;;;0.37;0.37;;;15.80;99.90;;;;;;5095494;28;20040;-71
2023/08/01 05:46:14;;;;;;;0.40;0.40;;;15.80;99.90;;;;;;5095441;28;20051;-71
2023/08/01 05:48:40;;;;;;;0.30;0.30;;;15.80;99.90;;;;;;5095401;28;20036;-71
2023/08/01 05:51:06;;;;;;;0.40;0.40;;;15.80;99.90;;;;;;5095247;28;20032;-71
2023/08/01 05:53:31;;;;;;;0.30;0.30;;;15.80;99.90;;;;;;5095764;28;20107;-72
2023/08/01 05:55:57;;;;;;;0.30;0.30;;;15.90;99.90;;;;;;5095256;28;20375;-71
2023/08/01 05:58:23;;;;;;;0.30;0.30;;;15.90;99.90;;;;;;5095152;28;20040;-71
2023/08/01 06:00:49;;;;;;;0.40;0.40;;;15.90;99.90;;;;;;5095264;28;20073;-72
2023/08/01 06:03:14;;;;;;;0.45;0.38;;;15.90;99.90;;;;;;5095164;28;20517;-71
2023/08/01 06:05:40;;;;;;;0.40;0.40;;;15.90;99.90;;;;;;5095095;28;20097;-72
2023/08/01 06:08:07;;;;;;;0.30;0.30;;;15.90;99.90;;;;;;5095089;28;20035;-72
2023/08/01 06:10:33;;;;;;;0.30;0.30;;;15.90;99.90;;;;;;5094998;28;20040;-73
2023/08/01 06:12:59;;;;;;;0.30;0.30;;;15.90;99.90;;;;;;5095257;28;20055;-75
2023/08/01 06:15:24;;;;;;;0.30;0.30;;;15.80;99.90;;;;;;5094958;28;20093;-75
2023/08/01 06:17:50;;;;;;;0.30;0.30;;;15.90;99.90;;;;;;5093618;28;20036;-74
2023/08/01 06:20:16;;;;;;;3.87;0.77;;;15.90;99.90;;;;;;5094897;28;20126;-74
2023/08/01 06:22:42;;;;;;;0.30;0.30;;;15.90;99.90;;;;;;5094997;28;20044;-74
2023/08/01 06:25:08;;;;;;;0.30;0.30;;;15.90;99.90;;;;;;5094786;28;20126;-75
2023/08/01 06:27:34;;;;;;;0.30;0.30;;;15.90;99.90;;;;;;5093972;28;20040;-75
2023/08/01 06:30:00;;;;;;;0.30;0.30;;;15.80;99.90;;;;;;5094545;28;20754;-76
2023/08/01 06:32:26;;;;;;;0.57;0.57;;;15.80;99.90;;;;;;5094591;28;20040;-76
2023/08/01 06:34:51;;;;;;;0.20;0.20;;;15.80;99.90;;;;;;5094508;28;20082;-75
2023/08/01 06:37:17;;;;;;;0.80;0.68;;;15.80;99.90;;;;;;5094458;28;20456;-76
2023/08/01 06:39:42;;;;;;;0.33;0.33;;;15.80;99.90;;;;;;5094506;28;20092;-74
2023/08/01 06:42:08;;;;;;;0.30;0.30;;;15.80;99.90;;;;;;5094338;28;20036;-74
2023/08/01 06:44:34;;;;;;;0.30;0.30;;;15.80;99.90;;;;;;5094425;28;20043;-76
2023/08/01 06:47:00;;;;;;;0.40;0.40;;;15.90;99.90;;;;;;5094467;28;20083;-76
2023/08/01 06:49:25;;;;;;;0.30;0.30;;;15.90;99.90;;;;;;5094140;28;20071;-75
2023/08/01 06:51:51;;;;;;;0.37;0.37;;;16.00;99.90;;;;;;5094016;28;20036;-77
2023/08/01 06:54:16;;;;;;;0.60;0.60;;;16.10;99.90;;;;;;5094230;28;20122;-78
2023/08/01 06:56:47;;;;;;;0.30;0.30;;;16.20;99.90;;;;;;5094218;28;20040;-77
2023/08/01 06:59:16;;;;;;;0.60;0.60;;;16.50;99.90;;;;;;5094393;28;20050;-78
2023/08/01 07:01:43;;;;;;;0.50;0.50;;;16.50;99.90;;;;;;5094068;28;20086;-78
2023/08/01 07:04:13;;;;;;;1.85;0.80;;;16.60;99.90;;;;;;5093963;28;20039;-77
2023/08/01 07:06:40;;;;;;;0.43;0.43;;;16.70;99.90;;;;;;5094007;28;20386;-79
2023/08/01 07:09:05;;;;;;;;;;;16.80;99.90;;;;;;5094514;28;20039;-78
2023/08/01 07:11:31;;;;;;;0.30;0.30;;;16.70;99.90;;;;;;5094160;28;19916;-76
2023/08/01 07:13:57;;;;;;;0.43;0.43;;;16.70;99.90;;;;;;5094333;28;20127;-76
2023/08/01 07:16:23;;;;;;;0.30;0.30;;;16.90;99.90;;;;;;5094049;28;20055;-76
2023/08/01 07:18:50;;;;;;;0.67;0.33;;;17.00;99.90;;;;;;5093631;28;20472;-75
2023/08/01 07:21:16;;;;;;;0.30;0.30;;;17.20;99.90;;;;;;5093654;28;20123;-77
2023/08/01 07:23:41;;;;;;;0.30;0.30;;;17.30;99.90;;;;;;5093982;28;20043;-76
2023/08/01 07:26:07;;;;;;;0.43;0.43;;;17.30;99.90;;;;;;5093789;28;20464;-76
2023/08/01 07:28:33;;;;;;;0.47;0.40;;;17.30;99.90;;;;;;5093755;28;20032;-73
2023/08/01 07:31:04;;;;;;;0.50;0.50;;;17.30;99.90;;;;;;5093118;28;20497;-73
2023/08/01 07:33:29;;;;;;;0.30;0.30;;;17.30;99.90;;;;;;5093400;28;20136;-76
2023/08/01 07:35:55;;;;;;;0.67;0.67;;;17.30;99.90;;;;;;5093781;28;20476;-74
2023/08/01 07:38:21;;;;;;;0.40;0.40;;;17.30;99.90;;;;;;5094030;28;20036;-75
2023/08/01 07:40:46;;;;;;;0.30;0.30;;;17.40;99.90;;;;;;5098141;28;20044;-74
2023/08/01 07:43:12;;;;;;;0.37;0.37;;;17.40;99.90;;;;;;5097521;28;20464;-76
2023/08/01 07:45:38;;;;;;;0.45;0.45;;;17.50;99.90;;;;;;5097216;28;20089;-76
2023/08/01 07:48:04;;;;;;;0.30;0.30;;;17.60;99.90;;;;;;5097121;28;20115;-84
2023/08/01 07:50:30;;;;;;;0.30;0.30;;;17.70;99.90;;;;;;5097691;28;20051;-76
2023/08/01 07:52:56;;;;;;;0.30;0.30;;;17.80;99.90;;;;;;5096846;28;20036;-75
2023/08/01 07:55:21;;;;;;;0.30;0.30;;;17.80;99.90;;;;;;5097427;28;20062;-75
2023/08/01 07:57:47;;;;;;;0.30;0.30;;;17.70;99.90;;;;;;5096012;28;20074;-76
2023/08/01 08:00:14;;;;;;;1.40;0.97;;;17.60;99.90;;;;;;5097485;28;20051;-76
2023/08/01 08:02:41;;;;;;;0.43;0.40;;;17.60;99.90;;;;;;5095767;28;20036;-76
2023/08/01 08:05:07;;;;;;;0.22;0.22;;;17.40;99.90;;;;;;5097421;28;20047;-77
2023/08/01 08:07:33;;;;;;;0.30;0.30;;;17.50;99.90;;;;;;5097338;28;20040;-78
2023/08/01 08:09:59;;;;;;;0.20;0.20;;;17.40;99.90;;;;;;5097127;28;20050;-77
2023/08/01 08:12:24;;;;;;;0.20;0.20;;;17.40;99.90;;;;;;5097127;28;20052;-75
2023/08/01 08:14:50;;;;;;;0.40;0.40;;;17.30;99.90;;;;;;5097198;28;20387;-76
2023/08/01 08:17:15;;;;;;;0.50;0.43;;;17.30;99.90;;;;;;5096891;28;20039;-75
2023/08/01 08:19:41;;;;;;;0.30;0.30;;;17.20;99.90;;;;;;5097545;28;20109;-76
2023/08/01 08:22:07;;;;;;;0.30;0.30;;;17.10;99.90;;;;;;5097054;28;20048;-77
2023/08/01 08:24:32;;;;;;;0.43;0.43;;;17.10;99.90;;;;;;5096728;28;20043;-75
2023/08/01 08:26:58;;;;;;;0.40;0.40;;;17.10;99.90;;;;;;5096583;28;20040;-75
2023/08/01 08:29:24;;;;;;;0.30;0.30;;;17.00;99.90;;;;;;5096623;28;20384;-75
2023/08/01 08:31:50;;;;;;;0.97;0.83;;;17.10;99.90;;;;;;5097098;28;20031;-74
2023/08/01 08:34:16;;;;;;;0.30;0.30;;;17.20;99.90;;;;;;5096731;28;20040;-75
2023/08/01 08:36:41;;;;;;;0.30;0.30;;;17.20;99.90;;;;;;5096312;28;20043;-74
2023/08/01 08:39:08;;;;;;;0.20;0.20;;;17.30;99.90;;;;;;5096473;28;20101;-75
2023/08/01 08:41:39;;;;;;;0.32;0.32;;;17.20;99.90;;;;;;5096268;28;20040;-75
2023/08/01 08:44:07;;;;;;;0.40;0.40;;;17.10;99.90;;;;;;5096459;28;20588;-75
2023/08/01 08:46:38;;;;;;;0.75;0.60;;;17.10;99.90;;;;;;5096427;28;20040;-75
2023/08/01 08:49:04;;;;;;;0.50;0.50;;;17.10;99.90;;;;;;5097062;28;20046;-74
2023/08/01 08:51:31;;;;;;;0.38;0.38;;;17.00;99.90;;;;;;5095948;28;20051;-75
2023/08/01 08:53:57;;;;;;;0.30;0.30;;;16.90;99.90;;;;;;5096504;28;20114;-75
2023/08/01 08:56:23;;;;;;;0.30;0.30;;;16.80;99.90;;;;;;5096110;28;20170;-74
2023/08/01 08:58:49;;;;;;;0.30;0.30;;;16.80;99.90;;;;;;5096033;28;20047;-75
2023/08/01 09:01:17;;;;;;;0.30;0.30;;;16.80;99.90;;;;;;5095891;28;20497;-75
2023/08/01 09:03:44;;;;;;;0.30;0.30;;;16.80;99.90;;;;;;5096093;28;20035;-75
2023/08/01 09:06:15;;;;;;;0.30;0.30;;;16.80;99.90;;;;;;5095718;28;20040;-74
2023/08/01 09:08:52;;;;;;;0.35;0.35;;;16.90;99.90;;;;;;5095914;28;20034;-75
2023/08/01 09:11:18;;;;;;;1.25;0.60;;;16.90;99.90;;;;;;5096108;28;20044;-74
2023/08/01 09:13:44;;;;;;;0.30;0.30;;;17.00;99.90;;;;;;5095672;28;20169;-74
2023/08/01 09:16:11;;;;;;;0.30;0.30;;;17.00;99.90;;;;;;5095083;28;20483;-75
2023/08/01 09:18:48;;;;;;;0.40;0.40;;;17.00;99.90;;;;;;5095424;28;20131;-75
2023/08/01 09:21:13;;;;;;;0.30;0.30;;;17.00;99.90;;;;;;5095788;28;20044;-74
2023/08/01 09:23:40;;;;;;;;;;;17.00;99.90;;;;;;5096151;28;20097;-74
2023/08/01 09:26:16;;;;;;;0.40;0.40;;;17.00;99.90;;;;;;5095731;28;19916;-74
2023/08/01 09:28:42;;;;;;;0.30;0.30;;;17.00;99.90;;;;;;5095667;28;20130;-75
2023/08/01 09:31:08;;;;;;;0.30;0.30;;;17.00;99.90;;;;;;5095638;28;20555;-74
2023/08/01 09:33:41;;;;;;;0.30;0.30;;;17.10;99.90;;;;;;5095721;28;20032;-74
2023/08/01 09:36:09;;;;;;;0.30;0.30;;;17.10;99.90;;;;;;5095454;28;20040;-73
2023/08/01 09:38:37;;;;;;;0.32;0.32;;;17.20;99.90;;;;;;5095298;28;20075;-73
2023/08/01 09:41:05;;;;;;;0.30;0.30;;;17.00;99.90;;;;;;5095242;28;20076;-73
2023/08/01 09:43:36;;;;;;;0.30;0.30;;;16.90;99.90;;;;;;5095291;28;20031;-74
2023/08/01 09:46:01;;;;;;;0.30;0.30;;;16.80;99.90;;;;;;5095004;28;20036;-73
2023/08/01 09:48:29;;;;;;;0.30;0.30;;;16.80;99.90;;;;;;5095342;28;20081;-74
2023/08/01 09:51:06;;;;;;;0.50;0.50;;;16.70;99.90;;;;;;5095459;28;20093;-74
2023/08/01 09:53:33;;;;;;;0.40;0.40;;;16.70;99.90;;;;;;5095104;28;20461;-74
2023/08/01 09:56:01;;;;;;;0.40;0.40;;;16.70;99.90;;;;;;5094737;28;20123;-75
2023/08/01 09:58:33;;;;;;;0.35;0.35;;;16.60;99.90;;;;;;5094722;28;20040;-74
2023/08/01 10:01:00;;;;;;;0.30;0.30;;;16.60;99.90;;;;;;5095291;28;20534;-75
2023/08/01 10:03:28;;;;;;;0.30;0.30;;;16.70;99.90;;;;;;5095228;28;20392;-74
2023/08/01 10:05:55;;;;;;;0.30;0.30;;;16.50;99.90;;;;;;5095050;28;20043;-75
2023/08/01 10:08:23;;;;;;;0.35;0.35;;;16.40;99.90;;;;;;5094710;28;20043;-78
2023/08/01 10:10:49;;;;;;;0.38;0.38;;;16.50;99.90;;;;;;5094899;28;20480;-75
2023/08/01 10:13:14;;;;;;;0.40;0.40;;;16.50;99.90;;;;;;5094769;28;20048;-75
2023/08/01 10:15:41;;;;;;;0.30;0.30;;;16.60;99.90;;;;;;5094864;28;20040;-76
2023/08/01 10:18:08;;;;;;;0.43;0.43;;;16.70;99.90;;;;;;5094386;28;20056;-75
2023/08/01 10:20:36;;;;;;;0.30;0.30;;;16.80;99.90;;;;;;5094471;28;20064;-74
2023/08/01 10:23:02;;;;;;;0.35;0.35;;;17.10;99.90;;;;;;5094520;28;20040;-74
2023/08/01 10:25:30;;;;;;;0.30;0.30;;;17.10;99.90;;;;;;5094905;28;20090;-73
2023/08/01 10:28:03;;;;;;;0.60;0.60;;;17.30;99.90;;;;;;5094461;28;20043;-72
2023/08/01 10:30:29;;;;;;;0.35;0.35;;;17.60;99.90;;;;;;5094564;28;20476;-72
2023/08/01 10:32:57;;;;;;;1.42;0.70;;;17.80;99.90;;;;;;5094564;28;20036;-72
2023/08/01 10:35:36;;;;;;;0.30;0.30;;;18.00;99.90;;;;;;5094126;28;20423;-73
2023/08/01 10:38:06;;;;;;;0.30;0.30;;;18.10;99.90;;;;;;5094014;28;20059;-73
2023/08/01 10:40:43;;;;;;;0.30;0.30;;;18.20;99.90;;;;;;5094139;28;20483;-78
2023/08/01 10:43:25;;;;;;;0.40;0.40;;;18.30;99.90;;;;;;5094408;28;20043;-74
2023/08/01 10:46:03;;;;;;;0.30;0.30;;;18.50;99.90;;;;;;5093805;28;20086;-74
2023/08/01 10:48:29;;;;;;;0.40;0.30;;;18.80;99.90;;;;;;5094194;28;20036;-74
2023/08/01 10:50:58;;;;;;;0.50;0.50;;;18.90;99.90;;;;;;5094434;28;20521;-74
2023/08/01 10:53:23;;;;;;;0.30;0.30;;;18.90;99.90;;;;;;5094180;28;20040;-74
2023/08/01 10:55:49;;;;;;;0.37;0.37;;;18.80;99.90;;;;;;5094379;28;20464;-76
2023/08/01 10:58:15;;;;;;;0.30;0.30;;;18.80;99.90;;;;;;5093900;28;20464;-75
2023/08/01 11:00:44;;;;;;;1.17;0.77;;;19.00;99.90;;;;;;5093441;28;20043;-74
2023/08/01 11:03:10;;;;;;;0.30;0.30;;;19.30;99.90;;;;;;5092242;28;20051;-74
2023/08/01 11:05:36;;;;;;;0.30;0.30;;;19.60;99.90;;;;;;5093969;28;20048;-74
2023/08/01 11:08:03;;;;;;;0.43;0.43;;;19.70;99.90;;;;;;5094085;28;20035;-74
2023/08/01 11:10:30;;;;;;;0.30;0.30;;;19.70;99.90;;;;;;5093949;28;20044;-74
2023/08/01 11:12:57;;;;;;;0.40;0.40;;;19.60;99.90;;;;;;5093433;28;20028;-74
2023/08/01 11:15:23;;;;;;;0.95;0.50;;;19.60;99.90;;;;;;5093892;28;20376;-74
2023/08/01 11:17:51;;;;;;;0.40;0.40;;;19.70;99.90;;;;;;5093399;28;20468;-75
2023/08/01 11:20:20;;;;;;;0.30;0.30;;;19.70;99.90;;;;;;5094097;28;20043;-75
2023/08/01 11:23:04;;;;;;;0.30;0.30;;;19.60;99.90;;;;;;5093868;28;20472;-74
2023/08/01 11:25:37;;;;;;;0.35;0.35;;;19.60;99.90;;;;;;5093789;28;20118;-75
2023/08/01 11:28:08;;;;;;;0.30;0.30;;;19.50;99.90;;;;;;5093767;28;20039;-74
2023/08/01 11:30:34;;;;;;;0.30;0.30;;;19.20;99.90;;;;;;5094135;28;20036;-75
2023/08/01 11:33:02;;;;;;;0.30;0.30;;;19.00;99.90;;;;;;5093790;28;20375;-75
2023/08/01 11:35:28;;;;;;;0.20;0.20;;;18.90;99.90;;;;;;5093712;28;20040;-75
2023/08/01 11:37:55;;;;;;;0.30;0.30;;;18.60;99.90;;;;;;5093427;28;20032;-74
2023/08/01 11:40:21;;;;;;;0.75;0.75;;;18.50;99.90;;;;;;5093835;28;20078;-74
2023/08/01 11:42:52;;;;;;;0.30;0.30;;;18.40;99.90;;;;;;5093660;28;20059;-74
2023/08/01 11:45:18;;;;;;;0.40;0.40;;;18.20;99.90;;;;;;5093618;28;20095;-73
2023/08/01 11:47:47;;;;;;;0.30;0.30;;;18.20;99.90;;;;;;5093434;28;20056;-74
2023/08/01 11:50:14;;;;;;;0.28;0.28;;;18.20;99.90;;;;;;5093318;28;20123;-75
2023/08/01 11:52:40;;;;;;;0.30;0.30;;;18.30;99.90;;;;;;5092121;28;20413;-75
2023/08/01 11:55:06;;;;;;;0.30;0.30;;;18.30;99.90;;;;;;5093593;28;20043;-76
2023/08/01 11:57:32;;;;;;;0.20;0.20;;;18.50;99.90;;;;;;5093195;28;20044;-77
2023/08/01 11:59:57;;;;;;;0.30;0.30;;;18.70;99.90;;;;;;5093615;28;20096;-77
2023/08/01 12:02:31;;;;;;;0.20;0.20;;;18.70;99.90;;;;;;5093745;28;20133;-77
2023/08/01 12:04:57;;;;;;;0.30;0.30;;;18.70;99.90;;;;;;5093355;28;20080;-77
2023/08/01 12:07:25;;;;;;;0.35;0.35;;;18.60;99.90;;;;;;5093332;28;20044;-77
2023/08/01 12:09:59;;;;;;;0.40;0.40;;;18.50;99.90;;;;;;5093302;28;20535;-76
2023/08/01 12:12:27;;;;;;;0.30;0.30;;;18.40;99.90;;;;;;5093211;28;20054;-77
2023/08/01 12:14:54;;;;;;;0.20;0.20;;;18.40;99.90;;;;;;5093119;28;20050;-76
2023/08/01 12:17:19;;;;;;;0.20;0.20;;;18.50;99.90;;;;;;5093044;28;20411;-76
2023/08/01 12:19:45;;;;;;;0.30;0.30;;;18.50;99.90;;;;;;5093639;28;20056;-76
2023/08/01 12:22:12;;;;;;;0.40;0.40;;;18.70;99.90;;;;;;5093179;28;20047;-77
2023/08/01 12:24:38;;;;;;;0.30;0.30;;;18.90;99.90;;;;;;5093408;28;20040;-76
2023/08/01 12:27:09;;;;;;;0.30;0.30;;;19.10;99.90;;;;;;5096141;28;20039;-76
2023/08/01 12:29:35;;;;;;;0.30;0.30;;;19.30;99.90;;;;;;5096594;28;20506;-76
2023/08/01 12:32:03;;;;;;;0.30;0.30;;;19.40;99.90;;;;;;5096698;28;20118;-76
2023/08/01 12:34:28;;;;;;;1.05;0.95;;;19.30;99.90;;;;;;5096706;28;20036;-77
2023/08/01 12:36:54;;;;;;;0.30;0.30;;;19.30;99.90;;;;;;5096844;28;20050;-77
2023/08/01 12:39:20;;;;;;;0.30;0.30;;;19.20;99.90;;;;;;5096314;28;20377;-76
2023/08/01 12:41:45;;;;;;;0.27;0.27;;;19.10;99.90;;;;;;5096451;28;20088;-78
2023/08/01 12:44:12;;;;;;;0.30;0.30;;;19.10;99.90;;;;;;5095498;28;20093;-76